createdAt,value
2023-04-18T00:00:43.640Z,63.00
2023-04-18T00:03:10.534Z,62.90
2023-04-18T00:05:37.992Z,62.70
2023-04-18T00:08:05.589Z,62.70
2023-04-18T00:10:33.129Z,62.60
2023-04-18T00:13:00.495Z,62.50
2023-04-18T00:15:29.245Z,62.50
2023-04-18T00:18:00.897Z,62.50
2023-04-18T00:20:27.942Z,62.40
2023-04-18T00:22:55.075Z,62.40
2023-04-18T00:25:21.951Z,62.20
2023-04-18T00:27:48.849Z,62.20
2023-04-18T00:30:15.780Z,62.10
2023-04-18T00:32:42.709Z,62.10
2023-04-18T00:35:09.789Z,62.10
2023-04-18T00:37:37.316Z,62.00
2023-04-18T00:40:05.614Z,61.80
2023-04-18T00:42:33.939Z,61.70
2023-04-18T00:45:01.355Z,61.50
2023-04-18T00:47:28.288Z,61.30
2023-04-18T00:49:55.459Z,61.10
2023-04-18T00:52:22.450Z,60.80
2023-04-18T00:54:49.679Z,60.70
2023-04-18T00:57:16.797Z,60.50
2023-04-18T00:59:43.816Z,60.20
2023-04-18T01:02:11.120Z,60.00
2023-04-18T01:04:38.646Z,59.90
2023-04-18T01:07:09.371Z,59.60
2023-04-18T01:09:37.087Z,59.30
2023-04-18T01:12:04.269Z,59.00
2023-04-18T01:14:31.105Z,58.80
2023-04-18T01:16:58.804Z,58.40
2023-04-18T01:19:25.774Z,58.40
2023-04-18T01:21:53.506Z,58.00
2023-04-18T01:24:20.450Z,57.60
2023-04-18T01:26:48.342Z,57.30
2023-04-18T01:29:15.667Z,56.60
2023-04-18T01:31:42.550Z,56.60
2023-04-18T01:34:09.560Z,56.50
2023-04-18T01:36:37.656Z,56.40
2023-04-18T01:39:04.807Z,56.30
2023-04-18T01:41:32.813Z,55.90
2023-04-18T01:44:00.488Z,55.70
2023-04-18T01:46:27.962Z,55.60
2023-04-18T01:48:55.418Z,55.40
2023-04-18T01:51:22.753Z,55.20
2023-04-18T01:53:50.153Z,55.20
2023-04-18T01:56:17.077Z,55.20
2023-04-18T01:58:43.906Z,55.00
2023-04-18T02:01:12.825Z,55.00
2023-04-18T02:03:40.035Z,55.20
2023-04-18T02:06:07.754Z,55.20
2023-04-18T02:08:36.244Z,55.10
2023-04-18T02:11:05.528Z,55.10
2023-04-18T02:13:32.732Z,55.00
2023-04-18T02:15:59.695Z,54.90
2023-04-18T02:18:27.472Z,54.90
2023-04-18T02:20:54.537Z,54.80
2023-04-18T02:23:22.215Z,54.90
2023-04-18T02:25:49.113Z,55.10
2023-04-18T02:28:17.611Z,54.80
2023-04-18T02:30:44.447Z,54.80
2023-04-18T02:33:11.403Z,54.70
2023-04-18T02:35:38.673Z,54.80
2023-04-18T02:38:05.810Z,54.60
2023-04-18T02:40:32.705Z,54.40
2023-04-18T02:42:59.794Z,54.50
2023-04-18T02:45:26.767Z,54.60
2023-04-18T02:47:56.655Z,54.40
2023-04-18T02:50:24.850Z,54.40
2023-04-18T02:52:53.458Z,54.50
2023-04-18T02:55:22.365Z,54.40
2023-04-18T02:57:49.178Z,54.20
2023-04-18T03:00:45.359Z,54.20
2023-04-18T03:03:44.774Z,54.00
2023-04-18T03:06:31.878Z,53.90
2023-04-18T03:09:01.028Z,54.10
2023-04-18T03:11:28.614Z,54.20
2023-04-18T03:13:56.109Z,54.10
2023-04-18T03:16:25.794Z,54.00
2023-04-18T03:18:53.516Z,54.10
2023-04-18T03:21:22.225Z,54.20
2023-04-18T03:23:50.125Z,54.30
2023-04-18T03:26:17.093Z,54.20
2023-04-18T03:28:45.717Z,54.20
2023-04-18T03:31:12.984Z,54.30
2023-04-18T03:33:44.181Z,54.40
2023-04-18T03:36:12.305Z,54.30
2023-04-18T03:38:40.649Z,54.40
2023-04-18T03:41:08.306Z,54.20
2023-04-18T03:43:37.340Z,54.20
2023-04-18T03:46:04.518Z,54.30
2023-04-18T03:48:35.854Z,54.30
2023-04-18T03:51:06.669Z,54.30
2023-04-18T03:53:33.657Z,54.30
2023-04-18T03:56:01.072Z,54.30
2023-04-18T03:58:42.561Z,54.40
2023-04-18T04:01:09.588Z,54.40
2023-04-18T04:03:37.535Z,54.30
2023-04-18T04:06:06.513Z,54.40
2023-04-18T04:08:34.409Z,54.40
2023-04-18T04:11:01.976Z,54.30
2023-04-18T04:13:29.408Z,54.40
2023-04-18T04:15:57.272Z,54.40
2023-04-18T04:18:31.237Z,54.40
2023-04-18T04:21:00.585Z,54.50
2023-04-18T04:23:38.159Z,54.60
2023-04-18T04:26:05.134Z,54.70
2023-04-18T04:28:46.753Z,54.50
2023-04-18T04:31:16.883Z,54.50
2023-04-18T04:33:44.200Z,54.60
2023-04-18T04:36:18.911Z,54.70
2023-04-18T04:38:47.227Z,54.80
2023-04-18T04:41:14.048Z,54.90
2023-04-18T04:43:41.275Z,54.80
2023-04-18T04:46:09.284Z,55.10
2023-04-18T04:48:36.154Z,55.10
2023-04-18T04:51:04.162Z,55.20
2023-04-18T04:53:31.105Z,55.10
2023-04-18T04:55:59.635Z,55.30
2023-04-18T04:58:27.093Z,55.30
2023-04-18T05:01:16.966Z,55.30
2023-04-18T05:03:44.647Z,55.40
2023-04-18T05:06:12.108Z,55.50
2023-04-18T05:08:38.886Z,55.60
2023-04-18T05:11:05.923Z,55.70
2023-04-18T05:13:32.742Z,55.70
2023-04-18T05:15:59.604Z,55.70
2023-04-18T05:18:26.460Z,55.80
2023-04-18T05:20:53.453Z,55.80
2023-04-18T05:23:20.263Z,55.90
2023-04-18T05:25:47.123Z,56.00
2023-04-18T05:28:14.288Z,56.10
2023-04-18T05:30:41.671Z,56.30
2023-04-18T05:33:08.712Z,56.30
2023-04-18T05:35:35.566Z,56.40
2023-04-18T05:38:02.354Z,56.40
2023-04-18T05:40:30.015Z,56.40
2023-04-18T05:42:56.837Z,56.50
2023-04-18T05:45:23.675Z,56.50
2023-04-18T05:47:51.214Z,56.60
2023-04-18T05:50:17.995Z,56.70
2023-04-18T05:52:44.903Z,56.70
2023-04-18T05:55:12.239Z,56.70
2023-04-18T05:57:40.544Z,56.80
2023-04-18T06:00:11.486Z,56.90
2023-04-18T06:02:41.074Z,57.00
2023-04-18T06:05:08.767Z,57.00
2023-04-18T06:07:36.329Z,57.00
2023-04-18T06:10:03.713Z,57.10
2023-04-18T06:12:30.701Z,57.20
2023-04-18T06:14:57.532Z,57.20
2023-04-18T06:17:24.615Z,57.30
2023-04-18T06:19:52.393Z,57.50
2023-04-18T06:22:19.480Z,57.50
2023-04-18T06:24:46.526Z,57.70
2023-04-18T06:27:27.996Z,57.70
2023-04-18T06:29:57.364Z,57.80
2023-04-18T06:32:24.347Z,57.90
2023-04-18T06:34:52.974Z,57.90
2023-04-18T06:37:20.710Z,57.90
2023-04-18T06:39:47.580Z,57.80
2023-04-18T06:42:14.711Z,57.80
2023-04-18T06:44:48.162Z,57.90
2023-04-18T06:47:15.158Z,57.80
2023-04-18T06:49:41.973Z,57.80
2023-04-18T06:52:08.756Z,57.90
2023-04-18T06:54:35.615Z,58.00
2023-04-18T06:57:03.759Z,58.20
2023-04-18T06:59:30.780Z,58.20
2023-04-18T07:01:57.665Z,58.20
2023-04-18T07:04:24.710Z,58.20
2023-04-18T07:06:52.192Z,58.20
2023-04-18T07:09:19.288Z,58.20
2023-04-18T07:11:46.141Z,58.10
2023-04-18T07:14:13.210Z,58.20
2023-04-18T07:16:40.774Z,58.20
2023-04-18T07:19:07.731Z,58.20
2023-04-18T07:21:34.575Z,58.30
2023-04-18T07:24:01.397Z,58.30
2023-04-18T07:26:28.288Z,58.40
2023-04-18T07:28:55.122Z,58.50
2023-04-18T07:31:22.176Z,58.50
2023-04-18T07:33:49.144Z,58.60
2023-04-18T07:36:15.966Z,58.80
2023-04-18T07:38:44.303Z,59.00
2023-04-18T07:41:11.322Z,59.00
2023-04-18T07:43:39.055Z,59.10
2023-04-18T07:46:06.811Z,59.00
2023-04-18T07:48:33.782Z,58.90
2023-04-18T07:51:00.651Z,58.80
2023-04-18T07:53:27.493Z,58.90
2023-04-18T07:55:54.871Z,58.90
2023-04-18T07:58:21.774Z,58.80
2023-04-18T08:00:48.686Z,58.70
2023-04-18T08:03:16.266Z,58.50
2023-04-18T08:05:46.548Z,58.70
2023-04-18T08:08:13.681Z,59.00
2023-04-18T08:10:40.724Z,59.10
2023-04-18T08:13:08.291Z,58.70
2023-04-18T08:15:35.657Z,58.60
2023-04-18T08:18:02.581Z,57.90
2023-04-18T08:20:29.428Z,57.70
2023-04-18T08:25:25.974Z,57.30
2023-04-18T08:27:52.886Z,57.20
2023-04-18T08:30:19.928Z,57.60
2023-04-18T08:32:46.887Z,57.40
2023-04-18T08:35:13.880Z,57.30
2023-04-18T08:37:40.722Z,56.70
2023-04-18T08:40:07.925Z,56.50
2023-04-18T08:42:38.348Z,56.50
2023-04-18T08:45:09.577Z,56.00
2023-04-18T08:47:36.440Z,55.90
2023-04-18T08:50:03.398Z,55.90
2023-04-18T08:52:31.962Z,55.70
2023-04-18T08:54:58.735Z,55.80
2023-04-18T08:57:28.435Z,55.70
2023-04-18T08:59:55.605Z,55.70
2023-04-18T09:02:35.223Z,55.80
2023-04-18T09:05:14.326Z,55.30
2023-04-18T09:07:42.635Z,54.70
2023-04-18T09:10:10.157Z,54.50
2023-04-18T09:12:50.445Z,53.90
2023-04-18T09:15:23.592Z,53.20
2023-04-18T09:17:56.578Z,52.50
2023-04-18T09:20:35.787Z,52.70
2023-04-18T09:23:04.817Z,53.10
2023-04-18T09:25:40.083Z,53.30
2023-04-18T09:28:31.975Z,53.70
2023-04-18T09:31:04.368Z,53.50
2023-04-18T09:33:36.893Z,53.40
2023-04-18T09:36:21.524Z,53.40
2023-04-18T09:38:52.085Z,53.50
2023-04-18T09:41:21.499Z,53.40
2023-04-18T09:43:48.974Z,53.20
2023-04-18T09:46:17.740Z,53.10
2023-04-18T09:48:44.862Z,53.00
2023-04-18T09:51:15.319Z,53.10
2023-04-18T09:53:50.318Z,53.30
2023-04-18T09:56:27.420Z,53.20
2023-04-18T09:59:03.650Z,53.40
2023-04-18T10:01:31.238Z,53.50
2023-04-18T10:04:04.196Z,53.60
2023-04-18T10:06:34.499Z,53.50
2023-04-18T10:09:04.462Z,53.60
2023-04-18T10:11:34.828Z,53.90
2023-04-18T10:14:09.664Z,53.50
2023-04-18T10:16:38.399Z,53.10
2023-04-18T10:19:25.872Z,52.80
2023-04-18T10:21:53.810Z,52.90
2023-04-18T10:24:45.917Z,52.90
2023-04-18T10:27:12.793Z,52.60
2023-04-18T10:29:54.758Z,52.90
2023-04-18T10:32:24.383Z,53.20
2023-04-18T10:34:53.657Z,52.90
2023-04-18T10:37:20.648Z,52.60
2023-04-18T10:40:00.245Z,52.60
2023-04-18T10:42:51.949Z,52.60
2023-04-18T10:45:27.244Z,52.40
2023-04-18T10:48:25.921Z,52.30
2023-04-18T10:51:19.075Z,52.30
2023-04-18T10:53:54.320Z,52.40
2023-04-18T10:56:21.764Z,52.40
2023-04-18T10:58:52.935Z,52.60
2023-04-18T11:01:28.640Z,52.70
2023-04-18T11:03:58.890Z,52.50
2023-04-18T11:06:28.307Z,52.60
2023-04-18T11:09:14.484Z,52.80
2023-04-18T11:11:42.087Z,52.70
2023-04-18T11:14:09.279Z,52.60
2023-04-18T11:16:36.953Z,52.30
2023-04-18T11:19:26.388Z,52.10
2023-04-18T11:21:53.213Z,52.30
2023-04-18T11:24:24.303Z,52.50
2023-04-18T11:26:55.782Z,52.50
2023-04-18T11:29:23.092Z,52.50
2023-04-18T11:31:52.175Z,51.70
2023-04-18T11:34:19.008Z,51.00
2023-04-18T11:36:51.330Z,50.60
2023-04-18T11:39:18.778Z,50.60
2023-04-18T11:41:50.451Z,50.30
2023-04-18T11:44:27.059Z,50.30
2023-04-18T11:46:54.313Z,50.10
2023-04-18T11:49:32.003Z,50.50
2023-04-18T11:52:01.349Z,50.90
2023-04-18T11:54:42.670Z,50.80
2023-04-18T11:57:32.142Z,50.70
2023-04-18T12:00:00.816Z,50.80
2023-04-18T12:02:41.660Z,50.90
2023-04-18T12:05:10.406Z,51.20
2023-04-18T12:07:40.193Z,51.20
2023-04-18T12:10:10.034Z,51.40
2023-04-18T12:12:37.061Z,51.50
2023-04-18T12:15:08.183Z,51.50
2023-04-18T12:17:37.701Z,51.70
2023-04-18T12:20:07.515Z,51.80
2023-04-18T12:22:44.397Z,51.80
2023-04-18T12:25:27.168Z,51.80
2023-04-18T12:27:59.868Z,52.00
2023-04-18T12:30:29.381Z,51.90
2023-04-18T12:33:02.019Z,51.90
2023-04-18T12:35:30.848Z,52.10
2023-04-18T12:38:00.114Z,52.00
2023-04-18T12:40:27.724Z,52.20
2023-04-18T12:42:55.739Z,52.30
2023-04-18T12:45:23.676Z,52.60
2023-04-18T12:47:51.854Z,52.80
2023-04-18T12:50:23.525Z,53.10
2023-04-18T12:52:54.261Z,52.90
2023-04-18T12:55:23.422Z,52.90
2023-04-18T12:57:55.044Z,53.10
2023-04-18T13:00:24.476Z,52.90
2023-04-18T13:02:52.943Z,53.10
2023-04-18T13:05:22.743Z,53.30
2023-04-18T13:07:58.704Z,53.20
2023-04-18T13:10:29.976Z,53.30
2023-04-18T13:12:57.637Z,53.30
2023-04-18T13:15:24.965Z,53.30
2023-04-18T13:17:52.268Z,53.40
2023-04-18T13:20:19.680Z,53.50
2023-04-18T13:22:46.940Z,53.60
2023-04-18T19:18:47.110Z,52.80
2023-04-18T19:21:14.062Z,52.90
2023-04-18T19:23:42.103Z,53.00
2023-04-18T19:26:09.899Z,53.10
2023-04-18T19:28:37.275Z,53.10
2023-04-18T19:31:04.301Z,53.10
2023-04-18T19:33:31.345Z,53.10
2023-04-18T19:35:58.661Z,53.10
2023-04-18T19:38:25.660Z,53.10
2023-04-18T19:40:52.539Z,53.20
2023-04-18T19:43:19.606Z,53.30
2023-04-18T19:45:46.551Z,53.40
2023-04-18T19:48:13.675Z,53.40
2023-04-18T19:50:41.110Z,53.40
2023-04-18T19:53:08.496Z,53.50
2023-04-18T19:55:35.629Z,53.40
2023-04-18T19:58:02.685Z,53.50
2023-04-18T20:00:30.100Z,53.60
2023-04-18T20:02:58.855Z,53.50
2023-04-18T20:05:26.281Z,53.70
2023-04-18T20:07:53.158Z,53.60
2023-04-18T20:10:23.998Z,53.60
2023-04-18T20:12:51.193Z,53.60
2023-04-18T20:15:18.198Z,53.60
2023-04-18T20:17:45.293Z,53.70
2023-04-18T20:20:13.055Z,53.80
2023-04-18T20:22:40.435Z,53.90
2023-04-18T20:25:07.494Z,54.00
2023-04-18T20:27:34.445Z,54.00
2023-04-18T20:30:01.319Z,54.10
2023-04-18T20:32:28.315Z,54.10
2023-04-18T20:34:55.267Z,54.10
2023-04-18T20:37:22.358Z,54.20
2023-04-18T20:39:49.174Z,54.30
2023-04-18T20:42:16.296Z,54.30
2023-04-18T20:44:44.148Z,54.50
2023-04-18T20:47:11.992Z,54.50
2023-04-18T20:49:40.223Z,54.50
2023-04-18T20:52:11.883Z,54.60
2023-04-18T20:54:38.734Z,54.70
2023-04-18T20:57:05.739Z,54.70
2023-04-18T20:59:32.594Z,54.80
2023-04-18T21:01:59.651Z,54.90
2023-04-18T21:04:27.187Z,55.00
2023-04-18T21:06:54.257Z,55.10
2023-04-18T21:09:21.196Z,55.00
2023-04-18T21:11:48.063Z,55.10
2023-04-18T21:14:17.030Z,55.20
2023-04-18T21:16:44.159Z,55.30
2023-04-18T21:19:11.104Z,55.40
2023-04-18T21:21:38.105Z,55.50
2023-04-18T21:24:05.922Z,55.40
2023-04-18T21:26:32.735Z,55.50
2023-04-18T21:29:01.772Z,55.50
2023-04-18T21:31:30.651Z,55.50
2023-04-18T21:33:59.520Z,55.60
2023-04-18T21:36:27.907Z,55.70
2023-04-18T21:38:56.784Z,55.70
2023-04-18T21:41:24.486Z,55.80
2023-04-18T21:43:51.921Z,55.70
2023-04-18T21:46:19.357Z,55.80
2023-04-18T21:48:47.699Z,55.80
2023-04-18T21:51:16.330Z,55.80
2023-04-18T21:53:43.374Z,55.80
2023-04-18T21:56:10.968Z,55.90
2023-04-18T21:58:37.853Z,56.00
2023-04-18T22:01:04.895Z,56.00
2023-04-18T22:03:34.246Z,56.10
2023-04-18T22:06:01.675Z,56.20
2023-04-18T22:08:29.533Z,56.10
2023-04-18T22:10:58.978Z,56.10
2023-04-18T22:13:32.858Z,56.20
2023-04-18T22:16:03.545Z,56.20
2023-04-18T22:18:34.074Z,56.10
2023-04-18T22:21:02.327Z,56.20
2023-04-18T22:23:29.830Z,56.40
2023-04-18T22:25:56.797Z,56.40
2023-04-18T22:28:23.677Z,56.40
2023-04-18T22:30:51.114Z,56.50
2023-04-18T22:33:18.485Z,56.50
2023-04-18T22:35:47.687Z,56.60
2023-04-18T22:38:14.483Z,56.70
2023-04-18T22:40:41.296Z,56.70
2023-04-18T22:43:08.221Z,56.80
2023-04-18T22:45:35.296Z,56.90
2023-04-18T22:48:02.243Z,56.90
2023-04-18T22:50:30.192Z,57.00
2023-04-18T22:52:57.449Z,57.10
2023-04-18T22:55:24.437Z,57.20
2023-04-18T22:57:51.193Z,57.30
2023-04-18T23:00:18.374Z,57.30
2023-04-18T23:02:45.416Z,57.40
2023-04-18T23:05:12.379Z,57.40
2023-04-18T23:07:39.269Z,57.50
2023-04-18T23:10:07.005Z,57.50
2023-04-18T23:12:34.049Z,57.60
2023-04-18T23:15:01.039Z,57.60
2023-04-18T23:17:27.840Z,57.60
2023-04-18T23:19:54.763Z,57.60
2023-04-18T23:22:24.056Z,57.70
2023-04-18T23:24:51.364Z,57.80
2023-04-18T23:27:19.494Z,57.90
2023-04-18T23:29:49.485Z,57.90
2023-04-18T23:32:16.438Z,57.90
2023-04-18T23:34:44.804Z,58.00
2023-04-18T23:37:11.700Z,58.10
2023-04-18T23:39:38.562Z,58.10
2023-04-18T23:42:05.480Z,58.10
2023-04-18T23:44:32.515Z,58.20
2023-04-18T23:46:59.380Z,58.30
2023-04-18T23:49:28.144Z,58.20
2023-04-18T23:51:54.934Z,58.30
2023-04-18T23:54:21.784Z,58.30
2023-04-18T23:56:48.927Z,58.40
2023-04-18T23:59:15.852Z,58.50
